Time;durP1;ratioP1;P1;durP2;ratioP2;P2;SDS_P1;SDS_P2;PMS_P1;PMS_P2;Temp;Humidity;BMP_temperature;BMP_pressure;BME280_temperature;BME280_humidity;BME280_pressure;Samples;Min_cycle;Max_cycle;Signal;HPM_P1;HPM_P2
2021/09/05 00:00:22;;;;;;;24.23;9.63;;;16.60;1.00;;;;;;5034394;28;20426;-79
2021/09/05 00:03:28;;;;;;;21.47;10.53;;;16.50;1.00;;;;;;5033840;28;20419;-79
2021/09/05 00:05:54;;;;;;;17.80;10.13;;;16.60;1.00;;;;;;5033867;28;20370;-79
2021/09/05 00:08:35;;;;;;;22.27;11.00;;;16.60;1.00;;;;;;5016031;28;20432;-79
2021/09/05 00:11:05;;;;;;;17.20;9.50;;;16.60;1.00;;;;;;5015070;28;20165;-79
2021/09/05 00:13:30;;;;;;;20.10;11.07;;;16.50;1.00;;;;;;5034054;28;20411;-79
2021/09/05 00:15:59;;;;;;;19.90;10.60;;;16.50;1.00;;;;;;5032835;28;20419;-79
2021/09/05 00:18:41;;;;;;;17.57;10.50;;;16.50;1.00;;;;;;5018261;28;20228;-80
2021/09/05 00:21:23;;;;;;;16.43;10.10;;;16.50;1.00;;;;;;5032073;28;20523;-79
2021/09/05 00:24:07;;;;;;;18.93;10.73;;;16.50;1.00;;;;;;5014564;28;20829;-79
2021/09/05 00:26:33;;;;;;;18.30;10.57;;;16.50;1.00;;;;;;5023763;28;20390;-77
2021/09/05 00:29:10;;;;;;;18.00;10.53;;;16.40;1.00;;;;;;5033880;28;20738;-77
2021/09/05 00:31:36;;;;;;;15.40;10.50;;;16.40;1.00;;;;;;5033671;28;20533;-78
2021/09/05 00:34:05;;;;;;;16.50;10.40;;;16.40;1.00;;;;;;5033968;28;20406;-77
2021/09/05 00:36:36;;;;;;;18.30;10.90;;;16.40;1.00;;;;;;5033723;28;20188;-77
2021/09/05 00:39:06;;;;;;;19.47;12.00;;;16.30;1.00;;;;;;5031943;28;20463;-77
2021/09/05 00:41:35;;;;;;;21.27;11.53;;;16.30;1.00;;;;;;5014169;28;20363;-79
2021/09/05 00:44:11;;;;;;;18.60;11.40;;;16.30;1.00;;;;;;5014051;28;20372;-79
2021/09/05 00:46:38;;;;;;;22.63;12.43;;;16.30;1.00;;;;;;5012661;28;20408;-79
2021/09/05 00:49:17;;;;;;;20.70;11.73;;;16.20;1.00;;;;;;5032026;28;20957;-79
2021/09/05 00:51:53;;;;;;;25.80;10.80;;;16.20;1.00;;;;;;5033591;28;20510;-79
2021/09/05 00:54:20;;;;;;;21.40;11.87;;;16.20;1.00;;;;;;5033697;28;20874;-77
2021/09/05 00:56:59;;;;;;;16.47;10.70;;;16.10;1.00;;;;;;5033137;28;20979;-79
2021/09/05 00:59:24;;;;;;;22.93;12.00;;;16.10;1.00;;;;;;5031569;28;20462;-79
2021/09/05 01:01:53;;;;;;;19.90;11.97;;;16.10;1.00;;;;;;5033645;28;20423;-79
2021/09/05 01:04:29;;;;;;;20.20;11.90;;;16.00;1.00;;;;;;5032004;28;20263;-79
2021/09/05 01:07:05;;;;;;;20.53;11.73;;;16.00;1.00;;;;;;5032810;28;20426;-79
2021/09/05 01:09:47;;;;;;;20.30;11.90;;;16.00;1.00;;;;;;5031932;28;20405;-77
2021/09/05 01:12:23;;;;;;;20.17;11.60;;;15.90;1.00;;;;;;5032200;28;20806;-79
2021/09/05 01:15:06;;;;;;;22.23;11.63;;;15.90;1.00;;;;;;5016267;28;20394;-79
2021/09/05 01:17:39;;;;;;;21.03;11.30;;;15.90;1.00;;;;;;5015640;28;20453;-79
2021/09/05 01:20:09;;;;;;;18.00;11.30;;;15.80;1.00;;;;;;5022923;28;20434;-79
2021/09/05 01:23:16;;;;;;;20.43;11.80;;;15.80;1.00;;;;;;5022350;28;20974;-79
2021/09/05 01:25:42;;;;;;;23.77;13.23;;;15.80;1.00;;;;;;5028972;28;20434;-77
2021/09/05 01:28:17;;;;;;;23.77;11.93;;;15.70;1.00;;;;;;5021251;28;20386;-77
2021/09/05 01:30:47;;;;;;;23.43;12.97;;;15.70;1.00;;;;;;5033096;28;20507;-76
2021/09/05 01:33:15;;;;;;;20.13;11.90;;;15.70;1.00;;;;;;5033483;28;20826;-76
2021/09/05 01:35:47;;;;;;;22.57;12.70;;;15.70;1.00;;;;;;5014244;28;20388;-76
2021/09/05 01:38:17;;;;;;;24.00;11.87;;;15.70;1.00;;;;;;5024022;28;20760;-76
2021/09/05 01:40:47;;;;;;;23.70;13.50;;;15.70;1.00;;;;;;5037811;28;20391;-77
2021/09/05 01:43:12;;;;;;;22.13;11.27;;;15.70;1.00;;;;;;5037526;28;20395;-77
2021/09/05 01:45:38;;;;;;;29.23;12.90;;;15.70;1.00;;;;;;5036834;28;20394;-77
2021/09/05 01:48:22;;;;;;;25.57;12.43;;;15.60;1.00;;;;;;5036186;28;20255;-77
2021/09/05 01:50:53;;;;;;;21.30;12.37;;;15.80;1.00;;;;;;5036085;28;20238;-77
2021/09/05 01:53:29;;;;;;;27.17;12.00;;;15.60;1.00;;;;;;5036815;28;20370;-76
2021/09/05 01:55:59;;;;;;;24.10;12.30;;;15.60;1.00;;;;;;5037087;28;20898;-79
2021/09/05 01:58:29;;;;;;;25.70;12.33;;;15.60;1.00;;;;;;5034692;28;21017;-79
2021/09/05 02:00:54;;;;;;;20.77;11.73;;;15.60;1.00;;;;;;5036381;28;20384;-79
2021/09/05 02:03:23;;;;;;;26.30;12.87;;;15.60;1.00;;;;;;5036498;28;20416;-79
2021/09/05 02:05:53;;;;;;;20.30;11.80;;;15.50;1.00;;;;;;5036165;28;20727;-79
2021/09/05 02:08:30;;;;;;;23.17;12.60;;;15.50;1.00;;;;;;5034505;28;20457;-79
2021/09/05 02:10:56;;;;;;;27.20;12.67;;;15.50;1.00;;;;;;5030705;28;20960;-79
2021/09/05 02:13:23;;;;;;;22.73;12.03;;;15.50;1.00;;;;;;5016236;28;20388;-79
2021/09/05 02:15:53;;;;;;;24.93;13.30;;;15.50;1.00;;;;;;5016379;28;20190;-79
2021/09/05 02:18:18;;;;;;;21.77;12.00;;;15.50;1.00;;;;;;5020740;28;20427;-79
2021/09/05 02:20:58;;;;;;;25.60;13.30;;;15.50;1.00;;;;;;5016206;28;20423;-79
2021/09/05 02:23:29;;;;;;;24.93;12.10;;;15.50;1.00;;;;;;5019358;28;20420;-79
2021/09/05 02:25:59;;;;;;;22.97;12.57;;;15.50;1.00;;;;;;5021175;28;20407;-77
2021/09/05 02:28:24;;;;;;;22.80;12.97;;;15.50;1.00;;;;;;5027851;28;20421;-77
2021/09/05 02:30:53;;;;;;;21.87;12.80;;;15.50;1.00;;;;;;5015149;28;20414;-77
2021/09/05 02:33:23;;;;;;;25.00;13.77;;;15.50;1.00;;;;;;5017013;28;20172;-77
2021/09/05 02:35:59;;;;;;;27.80;13.17;;;15.40;1.00;;;;;;5036028;28;20383;-77
2021/09/05 02:38:41;;;;;;;24.67;12.17;;;15.40;1.00;;;;;;5035838;28;20403;-77
2021/09/05 02:41:40;;;;;;;22.23;12.20;;;15.40;1.00;;;;;;5036360;28;20414;-77
2021/09/05 02:44:06;;;;;;;23.20;12.23;;;15.40;1.00;;;;;;5035590;28;20409;-76
2021/09/05 02:46:41;;;;;;;24.93;13.07;;;15.50;1.00;;;;;;5035810;28;20387;-76
2021/09/05 02:49:34;;;;;;;23.53;12.00;;;15.50;1.00;;;;;;5022987;28;20172;-76
2021/09/05 02:52:22;;;;;;;36.90;13.37;;;15.40;1.00;;;;;;5015887;28;20440;-76
2021/09/05 02:54:52;;;;;;;21.40;12.70;;;15.40;1.00;;;;;;5016351;28;20397;-76
2021/09/05 02:57:23;;;;;;;28.53;13.90;;;15.40;1.00;;;;;;5015855;28;20838;-79
2021/09/05 02:59:52;;;;;;;25.30;13.67;;;15.40;1.00;;;;;;5031525;28;20870;-79
2021/09/05 03:02:23;;;;;;;24.13;14.00;;;15.40;1.00;;;;;;5034084;28;20386;-79
2021/09/05 03:04:53;;;;;;;21.53;11.90;;;15.40;1.00;;;;;;5035168;28;20403;-79
2021/09/05 03:07:35;;;;;;;29.33;13.33;;;15.40;1.00;;;;;;5035310;28;20392;-79
2021/09/05 03:10:17;;;;;;;27.03;13.03;;;15.40;1.00;;;;;;5032481;28;20418;-79
2021/09/05 03:13:10;;;;;;;26.00;13.40;;;15.40;1.00;;;;;;5035796;28;20438;-77
2021/09/05 03:15:41;;;;;;;22.23;12.17;;;15.40;1.00;;;;;;5015757;28;20423;-77
2021/09/05 03:18:11;;;;;;;30.83;12.47;;;15.40;1.00;;;;;;5018024;28;20447;-76
2021/09/05 03:21:04;;;;;;;23.83;12.80;;;15.40;1.00;;;;;;5030722;28;20835;-76
2021/09/05 03:23:58;;;;;;;24.83;13.60;;;15.40;1.00;;;;;;5018119;28;20566;-76
2021/09/05 03:26:35;;;;;;;24.20;12.77;;;15.40;1.00;;;;;;5023538;28;20407;-79
2021/09/05 03:29:02;;;;;;;35.40;15.43;;;15.30;1.00;;;;;;5034224;28;20479;-79
2021/09/05 03:31:29;;;;;;;24.90;13.20;;;15.30;1.00;;;;;;5033167;28;21073;-79
2021/09/05 03:33:55;;;;;;;25.90;14.03;;;15.20;1.00;;;;;;5034473;28;20891;-79
2021/09/05 03:36:23;;;;;;;39.07;14.43;;;15.20;1.00;;;;;;5034826;28;20392;-79
2021/09/05 03:38:48;;;;;;;25.77;13.03;;;15.20;1.00;;;;;;5033642;28;20255;-79
2021/09/05 03:41:15;;;;;;;29.47;13.97;;;15.20;1.00;;;;;;5034411;28;20518;-79
2021/09/05 03:43:40;;;;;;;30.23;14.90;;;15.20;1.00;;;;;;5034080;28;20164;-79
2021/09/05 03:46:11;;;;;;;24.07;13.50;;;15.20;1.00;;;;;;5034593;28;20414;-79
2021/09/05 03:51:58;;;;;;;26.87;14.00;;;15.10;1.00;;;;;;5014773;28;20470;-79
2021/09/05 03:54:24;;;;;;;29.17;14.00;;;15.00;1.00;;;;;;5015006;28;20475;-79
2021/09/05 03:56:53;;;;;;;24.50;13.93;;;15.00;1.00;;;;;;5014923;28;20495;-77
2021/09/05 03:59:23;;;;;;;27.43;12.77;;;15.00;1.00;;;;;;5021090;28;20525;-77
2021/09/05 04:01:53;;;;;;;24.50;12.90;;;14.90;1.00;;;;;;5034581;28;21006;-77
2021/09/05 04:04:35;;;;;;;27.90;14.47;;;14.90;1.00;;;;;;5033968;28;20854;-76
2021/09/05 04:07:19;;;;;;;27.77;13.77;;;14.90;1.00;;;;;;5033040;28;20409;-82
2021/09/05 04:10:11;;;;;;;32.77;14.50;;;14.80;1.00;;;;;;5032415;28;20415;-76
2021/09/05 04:12:53;;;;;;;27.53;14.63;;;14.80;1.00;;;;;;5033249;28;20418;-79
2021/09/05 04:15:18;;;;;;;31.43;15.17;;;14.80;1.00;;;;;;5034365;28;20395;-79
2021/09/05 04:18:10;;;;;;;26.73;14.07;;;14.80;1.00;;;;;;5027936;28;20436;-81
2021/09/05 04:20:41;;;;;;;30.43;15.17;;;14.80;1.00;;;;;;5015934;28;20177;-80
2021/09/05 04:23:23;;;;;;;28.53;14.17;;;14.70;1.00;;;;;;5012926;28;21001;-80
2021/09/05 04:26:05;;;;;;;29.30;13.80;;;14.70;1.00;;;;;;5016447;28;20443;-80
2021/09/05 04:28:41;;;;;;;30.60;14.27;;;14.70;1.00;;;;;;5032982;28;20820;-80
2021/09/05 04:31:17;;;;;;;29.10;15.10;;;14.70;1.00;;;;;;5033524;28;21003;-80
2021/09/05 04:34:04;;;;;;;31.33;14.50;;;14.60;1.00;;;;;;5033774;28;20834;-80
2021/09/05 04:36:35;;;;;;;34.07;14.90;;;14.60;1.00;;;;;;5033747;28;20354;-80
2021/09/05 04:39:01;;;;;;;39.53;14.90;;;14.60;1.00;;;;;;5033658;28;20390;-80
2021/09/05 04:41:29;;;;;;;30.70;14.87;;;14.70;1.00;;;;;;5031859;28;20508;-76
2021/09/05 04:44:05;;;;;;;28.97;14.80;;;14.60;1.00;;;;;;5034138;28;20486;-80
2021/09/05 04:46:41;;;;;;;30.43;14.90;;;14.60;1.00;;;;;;5033510;28;20410;-80
2021/09/05 04:49:23;;;;;;;31.07;15.87;;;14.50;1.00;;;;;;5032462;28;20501;-80
2021/09/05 04:52:06;;;;;;;35.03;15.63;;;14.50;1.00;;;;;;5013749;28;20423;-80
2021/09/05 04:54:47;;;;;;;33.73;15.80;;;14.50;1.00;;;;;;5014021;28;20542;-80
2021/09/05 04:57:29;;;;;;;30.53;14.50;;;14.50;1.00;;;;;;5014038;28;20431;-80
2021/09/05 04:59:55;;;;;;;32.57;13.70;;;;;;;;;;5031311;28;20850;-80
2021/09/05 05:02:40;;;;;;;34.20;14.13;;;14.50;1.00;;;;;;5033600;28;20435;-80
2021/09/05 05:05:17;;;;;;;26.50;13.93;;;14.50;1.00;;;;;;5033801;28;20423;-80
2021/09/05 05:08:22;;;;;;;31.60;14.27;;;14.50;1.00;;;;;;5033549;28;20386;-80
2021/09/05 05:10:59;;;;;;;28.90;14.07;;;14.50;1.00;;;;;;5032944;28;20411;-80
2021/09/05 05:13:25;;;;;;;29.63;14.13;;;14.40;1.00;;;;;;5037451;28;20391;-80
2021/09/05 05:15:52;;;;;;;31.20;14.57;;;14.40;1.00;;;;;;5037410;28;20461;-80
2021/09/05 05:18:29;;;;;;;29.70;13.90;;;14.40;1.00;;;;;;5033443;28;20423;-80
2021/09/05 05:20:59;;;;;;;28.30;13.37;;;14.50;1.00;;;;;;5034219;28;20786;-80
2021/09/05 05:23:26;;;;;;;29.27;13.97;;;14.40;1.00;;;;;;5020655;28;20427;-80
2021/09/05 05:25:52;;;;;;;26.47;13.67;;;14.50;1.00;;;;;;5029419;28;20407;-80
2021/09/05 05:28:18;;;;;;;28.33;14.10;;;14.50;1.00;;;;;;5036312;28;20426;-80
2021/09/05 05:30:47;;;;;;;31.53;14.77;;;14.50;1.00;;;;;;5036551;28;20443;-80
2021/09/05 05:33:17;;;;;;;31.83;15.03;;;14.60;1.00;;;;;;5036979;28;20783;-80
2021/09/05 05:35:43;;;;;;;32.37;15.20;;;14.60;1.00;;;;;;5037204;28;20395;-80
2021/09/05 05:38:11;;;;;;;29.17;14.07;;;14.60;1.00;;;;;;5036893;28;20399;-80
2021/09/05 05:40:41;;;;;;;28.47;13.70;;;14.60;1.00;;;;;;5036233;28;20648;-80
2021/09/05 05:43:17;;;;;;;29.60;14.67;;;14.70;1.00;;;;;;5035952;28;20596;-80
2021/09/05 05:45:44;;;;;;;34.23;15.30;;;14.70;1.00;;;;;;5036826;28;20529;-80
2021/09/05 05:48:23;;;;;;;30.17;16.00;;;14.70;1.00;;;;;;5036697;28;20794;-80
2021/09/05 05:50:59;;;;;;;34.03;14.70;;;14.70;1.00;;;;;;5030768;28;20580;-80
2021/09/05 05:53:29;;;;;;;28.57;14.20;;;14.90;1.00;;;;;;5016574;28;20918;-80
2021/09/05 05:55:59;;;;;;;32.10;15.30;;;14.90;1.00;;;;;;5016840;28;20396;-80
2021/09/05 05:58:41;;;;;;;32.60;14.60;;;15.00;1.00;;;;;;5017094;28;21054;-80
2021/09/05 06:01:17;;;;;;;34.00;16.20;;;15.00;1.00;;;;;;5022760;28;20842;-80
2021/09/05 06:03:53;;;;;;;32.13;14.63;;;15.10;1.00;;;;;;5036787;28;20393;-80
2021/09/05 06:06:29;;;;;;;32.63;14.90;;;15.20;1.00;;;;;;5021018;28;20415;-80
2021/09/05 06:09:05;;;;;;;30.73;15.00;;;15.30;1.00;;;;;;5016564;28;20382;-80
2021/09/05 06:11:35;;;;;;;24.90;14.47;;;15.30;1.00;;;;;;5023174;28;20507;-80
2021/09/05 06:14:11;;;;;;;24.57;13.83;;;15.40;1.00;;;;;;5035357;28;20407;-80
2021/09/05 06:16:37;;;;;;;24.70;12.67;;;15.50;1.00;;;;;;5036376;28;20474;-80
2021/09/05 06:19:05;;;;;;;32.20;14.10;;;15.50;1.00;;;;;;5030370;28;20577;-80
2021/09/05 06:21:41;;;;;;;27.47;14.60;;;15.60;1.00;;;;;;5033195;28;20566;-80
2021/09/05 06:24:23;;;;;;;28.80;14.57;;;15.60;1.00;;;;;;5013762;28;20570;-80
2021/09/05 06:26:53;;;;;;;26.20;13.83;;;;;;;;;;5031914;28;20832;-83
2021/09/05 06:29:23;;;;;;;27.17;13.30;;;15.80;1.00;;;;;;5017298;28;20387;-83
2021/09/05 06:32:05;;;;;;;26.90;13.50;;;15.90;1.00;;;;;;5022408;28;20857;-80
2021/09/05 06:34:58;;;;;;;28.47;13.40;;;16.00;1.00;;;;;;5030958;28;20418;-81
2021/09/05 06:37:29;;;;;;;32.43;13.70;;;16.00;1.00;;;;;;5035985;28;20453;-81
2021/09/05 06:39:59;;;;;;;23.20;13.50;;;16.10;1.00;;;;;;5034673;28;20914;-81
2021/09/05 06:42:35;;;;;;;23.37;13.30;;;16.20;1.00;;;;;;5028097;28;20565;-85
2021/09/05 06:45:11;;;;;;;34.33;14.30;;;16.30;1.00;;;;;;5025879;28;20992;-77
2021/09/05 06:47:41;;;;;;;30.83;14.20;;;16.30;1.00;;;;;;5036121;28;20383;-76
2021/09/05 06:50:07;;;;;;;28.63;14.57;;;16.40;1.00;;;;;;5035733;28;20509;-76
2021/09/05 06:52:35;;;;;;;24.60;13.07;;;16.40;1.00;;;;;;5028315;28;20424;-77
2021/09/05 06:55:11;;;;;;;23.50;12.80;;;16.60;1.00;;;;;;5025855;28;20865;-77
2021/09/05 06:57:48;;;;;;;27.53;13.70;;;;;;;;;;5035023;28;20481;-78
2021/09/05 07:00:17;;;;;;;25.13;13.20;;;16.70;1.00;;;;;;5035314;28;21010;-79
2021/09/05 07:03:22;;;;;;;31.97;13.60;;;16.70;1.00;;;;;;5027842;28;20434;-79
2021/09/05 07:05:59;;;;;;;28.13;14.03;;;;;;;;;;5028731;28;20390;-79
2021/09/05 07:08:46;;;;;;;20.90;12.80;;;16.90;1.00;;;;;;5034699;28;20853;-79
2021/09/05 07:11:17;;;;;;;25.07;13.60;;;16.90;1.00;;;;;;5033735;28;20478;-79
2021/09/05 07:13:42;;;;;;;26.50;12.93;;;17.00;1.00;;;;;;5034711;28;20834;-79
2021/09/05 07:16:17;;;;;;;25.37;12.57;;;17.10;1.00;;;;;;5031985;28;20493;-79
2021/09/05 07:19:10;;;;;;;26.20;13.13;;;17.20;1.00;;;;;;5027634;28;20177;-79
2021/09/05 07:21:36;;;;;;;23.83;12.67;;;17.30;1.00;;;;;;5017395;28;20478;-79
2021/09/05 07:24:28;;;;;;;23.13;12.77;;;17.40;1.00;;;;;;5015429;28;20489;-79
2021/09/05 07:30:17;;;;;;;25.53;12.80;;;17.70;1.00;;;;;;5014988;28;20488;-80
2021/09/05 07:32:53;;;;;;;22.70;12.50;;;17.80;1.00;;;;;;5020621;28;20428;-80
2021/09/05 07:36:10;;;;;;;23.50;11.87;;;17.80;1.00;;;;;;5033667;28;20734;-80
2021/09/05 07:38:47;;;;;;;22.07;12.37;;;;;;;;;;5033576;28;20396;-79
2021/09/05 07:41:40;;;;;;;24.37;13.10;;;18.10;1.00;;;;;;5033780;28;20890;-80
2021/09/05 07:44:28;;;;;;;25.67;13.63;;;18.20;1.00;;;;;;5020575;28;20501;-80
2021/09/05 07:47:05;;;;;;;25.30;13.33;;;18.20;1.00;;;;;;5025526;28;20398;-79
2021/09/05 07:49:35;;;;;;;20.37;12.43;;;18.20;1.00;;;;;;5033210;28;20396;-80
2021/09/05 07:52:17;;;;;;;30.47;13.87;;;18.30;1.00;;;;;;5034289;28;20921;-79
2021/09/05 07:54:59;;;;;;;27.30;14.23;;;18.40;1.00;;;;;;5033962;28;20396;-79
2021/09/05 07:57:41;;;;;;;24.00;12.43;;;18.50;1.00;;;;;;5021811;28;20434;-79
2021/09/05 08:00:11;;;;;;;24.07;13.10;;;18.60;1.00;;;;;;5013516;28;20423;-79
2021/09/05 08:02:41;;;;;;;24.20;13.07;;;18.70;1.00;;;;;;5014610;28;20429;-79
2021/09/05 08:05:23;;;;;;;22.23;12.30;;;18.80;1.00;;;;;;5014000;28;20385;-79
2021/09/05 08:08:10;;;;;;;20.80;12.00;;;18.90;1.00;;;;;;5024120;28;20433;-78
2021/09/05 08:10:47;;;;;;;22.50;12.33;;;19.00;1.00;;;;;;5032383;28;20385;-79
2021/09/05 08:13:34;;;;;;;21.27;12.53;;;18.90;1.00;;;;;;5033566;28;20897;-80
2021/09/05 08:16:05;;;;;;;24.03;13.70;;;19.00;1.00;;;;;;5019474;28;20495;-82
2021/09/05 08:19:10;;;;;;;27.33;13.70;;;19.10;1.00;;;;;;5019324;28;20460;-82
2021/09/05 08:21:58;;;;;;;21.00;11.50;;;;;;;;;;5031636;28;20469;-82
2021/09/05 08:24:41;;;;;;;26.33;12.40;;;19.30;1.00;;;;;;5026339;28;20415;-82
2021/09/05 08:27:11;;;;;;;19.63;12.17;;;;;;;;;;5022246;28;20918;-82
2021/09/05 08:29:37;;;;;;;25.87;13.43;;;19.50;1.00;;;;;;5013157;28;21129;-82
2021/09/05 08:32:03;;;;;;;23.50;12.43;;;;;;;;;;5020141;28;20449;-82
2021/09/05 08:34:52;;;;;;;18.47;11.73;;;19.60;1.00;;;;;;5033663;28;20190;-82
2021/09/05 08:37:23;;;;;;;31.30;12.93;;;19.70;1.00;;;;;;5014159;28;20533;-82
2021/09/05 08:39:53;;;;;;;23.83;12.00;;;19.80;1.00;;;;;;5014046;28;20399;-82
2021/09/05 08:42:33;;;;;;;23.83;11.30;;;19.90;1.00;;;;;;5014134;28;20453;-82
2021/09/05 08:45:06;;;;;;;21.30;12.13;;;20.00;1.00;;;;;;5014107;28;20736;-79
2021/09/05 08:47:59;;;;;;;22.83;12.17;;;20.10;1.00;;;;;;5012952;28;20833;-79
2021/09/05 08:50:26;;;;;;;18.90;11.40;;;20.20;1.00;;;;;;5014088;28;20746;-81
2021/09/05 08:53:05;;;;;;;22.73;12.20;;;20.30;1.00;;;;;;5013838;28;20391;-80
2021/09/05 08:55:41;;;;;;;23.07;11.93;;;20.40;1.00;;;;;;5013709;28;20480;-80
2021/09/05 08:58:28;;;;;;;16.83;10.67;;;20.40;1.00;;;;;;5013846;28;20824;-80
2021/09/05 09:00:54;;;;;;;22.00;12.77;;;20.60;1.00;;;;;;5012660;28;20896;-78
2021/09/05 09:03:22;;;;;;;25.03;12.80;;;20.70;1.00;;;;;;5027867;28;20565;-78
2021/09/05 09:05:53;;;;;;;21.33;11.33;;;20.80;1.00;;;;;;5032982;28;20172;-78
2021/09/05 09:08:23;;;;;;;23.17;11.50;;;20.90;1.00;;;;;;5033208;28;20404;-78
2021/09/05 09:10:53;;;;;;;22.63;11.30;;;21.00;1.00;;;;;;5033144;28;20362;-78
2021/09/05 09:13:40;;;;;;;18.37;10.83;;;21.10;1.00;;;;;;5033571;28;20404;-78
2021/09/05 09:16:09;;;;;;;26.73;11.97;;;21.30;1.00;;;;;;5032642;28;20403;-77
2021/09/05 09:18:36;;;;;;;17.90;11.17;;;21.40;1.00;;;;;;5026935;28;20441;-77
2021/09/05 09:21:05;;;;;;;19.33;11.80;;;21.50;1.00;;;;;;5032226;28;20429;-78
2021/09/05 09:23:35;;;;;;;22.50;11.90;;;21.60;1.00;;;;;;5032409;28;21035;-78
2021/09/05 09:26:04;;;;;;;20.60;11.57;;;21.70;1.00;;;;;;5032380;28;20398;-78
2021/09/05 09:28:35;;;;;;;23.73;12.00;;;21.80;1.00;;;;;;5032545;28;20426;-78
2021/09/05 09:31:12;;;;;;;32.63;13.50;;;21.80;1.00;;;;;;5031425;28;20473;-76
2021/09/05 09:33:37;;;;;;;19.10;12.07;;;21.90;1.00;;;;;;5032408;28;20502;-76
2021/09/05 09:36:04;;;;;;;23.70;11.37;;;22.00;1.00;;;;;;5031218;28;20437;-76
2021/09/05 09:38:31;;;;;;;18.93;11.63;;;22.20;1.00;;;;;;5032455;28;20600;-76
2021/09/05 09:41:30;;;;;;;18.37;11.20;;;22.20;1.00;;;;;;5032510;28;20418;-76
2021/09/05 09:43:58;;;;;;;21.53;11.93;;;22.30;1.00;;;;;;5032254;28;20426;-76
2021/09/05 09:46:26;;;;;;;19.67;10.97;;;22.40;1.00;;;;;;5032613;28;20399;-76
2021/09/05 09:48:54;;;;;;;19.90;11.90;;;22.40;1.00;;;;;;5032342;28;20390;-76
2021/09/05 09:51:20;;;;;;;17.53;10.30;;;22.50;1.00;;;;;;5032332;28;20357;-76
2021/09/05 09:53:47;;;;;;;26.20;13.23;;;22.70;1.00;;;;;;5032335;28;20386;-76
2021/09/05 09:56:16;;;;;;;22.60;11.37;;;22.70;1.00;;;;;;5031084;28;20444;-76
2021/09/05 09:58:43;;;;;;;18.00;10.63;;;22.80;1.00;;;;;;5034425;28;20415;-76
2021/09/05 10:01:12;;;;;;;21.10;10.73;;;22.80;1.00;;;;;;5034985;28;20427;-77
2021/09/05 10:03:40;;;;;;;22.10;11.37;;;23.10;1.00;;;;;;5035734;28;20890;-77
2021/09/05 10:06:06;;;;;;;17.37;11.27;;;23.10;1.00;;;;;;5035319;28;20411;-77
2021/09/05 10:08:35;;;;;;;25.20;11.60;;;23.20;1.00;;;;;;5034289;28;20803;-77
2021/09/05 10:11:01;;;;;;;18.00;10.80;;;23.30;1.00;;;;;;5035193;28;20377;-77
2021/09/05 10:13:33;;;;;;;20.30;10.83;;;23.50;1.00;;;;;;5035518;28;20388;-77
2021/09/05 10:16:00;;;;;;;17.70;10.60;;;23.60;1.00;;;;;;5035649;28;20237;-77
2021/09/05 10:18:27;;;;;;;16.10;10.00;;;23.60;1.00;;;;;;5034028;28;20436;-77
2021/09/05 10:20:56;;;;;;;15.50;9.77;;;23.60;1.00;;;;;;5026550;28;20413;-77
2021/09/05 10:23:30;;;;;;;18.10;10.30;;;23.70;1.00;;;;;;5034081;28;20462;-77
2021/09/05 10:26:04;;;;;;;14.83;9.53;;;23.70;1.00;;;;;;5035621;28;20404;-77
2021/09/05 10:28:37;;;;;;;19.40;10.50;;;23.80;1.00;;;;;;5035373;28;20402;-77
2021/09/05 10:31:03;;;;;;;19.83;10.00;;;;;;;;;;5035265;28;20502;-77
2021/09/05 10:33:37;;;;;;;18.63;10.40;;;24.10;1.00;;;;;;5035441;28;20413;-76
2021/09/05 10:36:23;;;;;;;18.40;9.80;;;24.20;1.00;;;;;;5034636;28;20432;-76
2021/09/05 10:39:08;;;;;;;16.80;9.80;;;24.30;1.00;;;;;;5035982;28;20401;-76
2021/09/05 10:41:55;;;;;;;18.47;10.60;;;24.40;1.00;;;;;;5035887;28;20445;-76
2021/09/05 10:44:21;;;;;;;16.63;10.10;;;24.40;1.00;;;;;;5035340;28;20429;-76
2021/09/05 10:46:49;;;;;;;15.60;10.27;;;24.50;1.00;;;;;;5036335;28;20874;-76
2021/09/05 10:49:16;;;;;;;22.90;10.57;;;24.50;1.00;;;;;;5035985;28;20608;-76
2021/09/05 10:51:48;;;;;;;18.23;8.97;;;24.50;1.00;;;;;;5036104;28;20885;-76
2021/09/05 10:54:27;;;;;;;25.20;9.47;;;24.60;1.00;;;;;;5018565;28;20425;-76
2021/09/05 10:57:05;;;;;;;12.83;8.53;;;24.70;1.00;;;;;;5015923;28;20402;-77
2021/09/05 10:59:35;;;;;;;18.00;9.40;;;24.80;1.00;;;;;;5032682;28;20425;-77
2021/09/05 11:02:03;;;;;;;13.33;7.67;;;24.90;1.00;;;;;;5035869;28;21168;-76
2021/09/05 11:04:39;;;;;;;17.13;8.87;;;25.00;1.00;;;;;;5034225;28;20500;-75
2021/09/05 11:07:08;;;;;;;13.17;8.80;;;25.10;1.00;;;;;;5035640;28;20402;-76
2021/09/05 11:09:34;;;;;;;14.87;9.40;;;25.10;1.00;;;;;;5034478;28;20404;-75
2021/09/05 11:12:12;;;;;;;17.90;10.40;;;25.20;1.00;;;;;;5035502;28;20401;-75
2021/09/05 11:14:45;;;;;;;21.10;9.27;;;;;;;;;;5027291;28;20183;-76
2021/09/05 11:17:34;;;;;;;14.47;9.40;;;25.30;1.00;;;;;;5015903;28;20398;-76
2021/09/05 11:20:12;;;;;;;12.80;8.90;;;25.50;1.00;;;;;;5023444;28;20494;-76
2021/09/05 11:22:48;;;;;;;13.40;8.73;;;25.40;1.00;;;;;;5027894;28;20505;-76
2021/09/05 11:25:30;;;;;;;13.87;8.13;;;25.70;1.00;;;;;;5035181;28;20872;-75
2021/09/05 11:28:11;;;;;;;20.00;8.60;;;25.80;1.00;;;;;;5018803;28;20475;-75
2021/09/05 11:30:39;;;;;;;11.87;8.20;;;25.80;1.00;;;;;;5016001;28;20428;-76
2021/09/05 11:33:08;;;;;;;15.50;8.80;;;25.80;1.00;;;;;;5017026;28;20848;-76
2021/09/05 11:35:38;;;;;;;13.30;7.93;;;25.80;1.00;;;;;;5034956;28;20922;-76
2021/09/05 11:38:06;;;;;;;19.17;8.60;;;25.90;1.00;;;;;;5034482;28;20748;-76
2021/09/05 11:40:47;;;;;;;13.27;8.27;;;26.00;1.00;;;;;;5034518;28;20404;-78
2021/09/05 11:43:13;;;;;;;12.07;8.13;;;26.00;1.00;;;;;;5014834;28;20447;-75
2021/09/05 11:45:40;;;;;;;13.67;7.93;;;26.00;1.00;;;;;;5035024;28;20446;-75
2021/09/05 11:48:11;;;;;;;10.53;7.33;;;26.00;1.00;;;;;;5034823;28;20416;-76
2021/09/05 11:50:38;;;;;;;10.93;7.70;;;25.90;1.00;;;;;;5034479;28;20392;-76
2021/09/05 11:53:05;;;;;;;9.77;7.47;;;26.20;1.00;;;;;;5033155;28;20450;-75
2021/09/05 11:55:41;;;;;;;13.40;7.87;;;26.40;1.00;;;;;;5033779;28;20799;-75
2021/09/05 11:58:11;;;;;;;12.10;7.93;;;26.40;1.00;;;;;;5034253;28;20419;-77
2021/09/05 12:00:41;;;;;;;12.43;7.60;;;26.50;1.00;;;;;;5034412;28;20556;-76
2021/09/05 12:03:13;;;;;;;9.70;7.47;;;26.60;1.00;;;;;;5034146;28;21012;-75
2021/09/05 12:05:41;;;;;;;10.83;7.30;;;26.70;1.00;;;;;;5033433;28;20813;-77
2021/09/05 12:08:07;;;;;;;9.27;7.03;;;26.80;1.00;;;;;;5034264;28;20406;-77
2021/09/05 12:10:44;;;;;;;12.37;7.10;;;26.90;1.00;;;;;;5034211;28;20392;-76
2021/09/05 12:13:12;;;;;;;12.67;7.50;;;27.00;1.00;;;;;;5033456;28;20180;-76
2021/09/05 12:15:39;;;;;;;9.57;6.97;;;27.00;1.00;;;;;;5034353;28;20402;-76
2021/09/05 12:18:21;;;;;;;10.80;6.80;;;27.10;1.00;;;;;;5029235;28;20461;-76
2021/09/05 12:20:55;;;;;;;12.83;7.07;;;27.20;1.00;;;;;;5022927;28;20419;-77
2021/09/05 12:23:24;;;;;;;10.67;6.80;;;27.30;1.00;;;;;;5025283;28;20458;-76
2021/09/05 12:25:51;;;;;;;11.23;6.17;;;27.40;1.00;;;;;;5032811;28;20513;-76
2021/09/05 12:28:26;;;;;;;10.67;6.07;;;27.50;1.00;;;;;;5016283;28;20486;-76
2021/09/05 12:30:57;;;;;;;6.33;5.43;;;27.70;1.00;;;;;;5022536;28;20418;-76
2021/09/05 12:33:41;;;;;;;7.60;5.20;;;27.80;1.00;;;;;;5032317;28;20910;-77
2021/09/05 12:36:23;;;;;;;9.90;6.10;;;27.90;1.00;;;;;;5033622;28;20918;-78
2021/09/05 12:38:57;;;;;;;7.40;6.20;;;28.00;1.00;;;;;;5033701;28;20393;-79
2021/09/05 12:41:28;;;;;;;9.83;6.13;;;28.10;1.00;;;;;;5029867;28;20415;-79
2021/09/05 12:44:22;;;;;;;8.77;5.97;;;28.10;1.00;;;;;;5024218;28;20495;-79
2021/09/05 12:46:48;;;;;;;6.63;5.40;;;28.30;1.00;;;;;;5033973;28;20386;-76
2021/09/05 12:49:17;;;;;;;6.67;5.70;;;28.40;1.00;;;;;;5033801;28;20505;-77
2021/09/05 12:52:01;;;;;;;8.87;6.20;;;28.50;1.00;;;;;;5033871;28;20774;-77
2021/09/05 12:54:29;;;;;;;6.70;5.50;;;28.50;1.00;;;;;;5033007;28;20414;-77
2021/09/05 12:56:55;;;;;;;7.43;5.90;;;28.50;1.00;;;;;;5033574;28;20391;-77
2021/09/05 12:59:21;;;;;;;14.23;5.77;;;28.50;1.00;;;;;;5032295;28;20794;-77
2021/09/05 13:01:51;;;;;;;9.43;6.00;;;28.50;1.00;;;;;;5033285;28;20196;-78
2021/09/05 13:04:23;;;;;;;7.23;5.83;;;28.40;1.00;;;;;;5032937;28;20815;-76
2021/09/05 13:06:53;;;;;;;6.70;5.77;;;28.50;1.00;;;;;;5033576;28;20401;-77
2021/09/05 13:09:20;;;;;;;6.20;5.10;;;;;;;;;;5028606;28;20407;-77
2021/09/05 13:11:53;;;;;;;5.50;4.77;;;28.80;1.00;;;;;;5013699;28;20400;-77
2021/09/05 13:14:23;;;;;;;9.33;5.67;;;28.80;1.00;;;;;;5025204;28;20441;-77
2021/09/05 13:17:11;;;;;;;5.73;4.70;;;28.70;1.00;;;;;;5033724;28;20394;-77
2021/09/05 13:19:36;;;;;;;11.00;5.40;;;28.90;1.00;;;;;;5026645;28;21136;-77
2021/09/05 13:22:02;;;;;;;7.43;4.80;;;28.80;1.00;;;;;;5016047;28;20458;-77
2021/09/05 13:24:29;;;;;;;8.63;4.60;;;28.90;1.00;;;;;;5031351;28;20182;-77